Lena-s. — V2EC7 — position and weather

sailwx.info

Track history (hours):
 
Tides and Currents Weather Stations Pressure Air Temp Water Temp Dewpoint Dewpoint Depression Visibility Wind Speed Wind Dir Waves Ship Positions

Lena-s.

Last reported at 2017-Sep-18 17:47 UTC. Time now 2017-Sep-19 13:45 UTC.
Position N 21°41' E 116°26'.

Length 261 m; draft 10.3 m.

Type: Ship (hazmat cat D). MMSI: 305386000.

Date/timePositionNaut miles runAvg speedWind from/ knotsBaromVisibWave heightAir tempDewpointWater temp
2017-Sep-18 17:47N 21°41' E 116°26'817.6
2017-Sep-18 17:18N 21°44' E 116°17'516.7
2017-Sep-18 16:58N 21°45' E 116°12'121 3.2
2017-Sep-17 02:47N 22°19' E 114°07'29 2.4
2017-Sep-16 14:50N 22°37' E 113°42'2 0.5
2017-Sep-16 11:04N 22°39' E 113°41'0 0.0
2017-Sep-16 10:40N 22°39' E 113°41'0 0.0
2017-Sep-16 10:28N 22°39' E 113°41'0 0.0
2017-Sep-16 05:56N 22°39' E 113°41'1 2.2
2017-Sep-16 05:30N 22°38' E 113°42'612.7
2017-Sep-16 05:00N 22°32' E 113°44'612.8
2017-Sep-16 04:30N 22°26' E 113°45'34611.6
2017-Sep-14 22:48N 22°32' E 119°59'413.2
2017-Sep-14 22:30N 22°32' E 120°04'713.4
2017-Sep-14 22:00N 22°33' E 120°11'713.7
2017-Sep-14 21:30N 22°33' E 120°18'1 2.2
2017-Sep-14 20:59N 22°33' E 120°19'0 0.7
2017-Sep-14 20:24N 22°34' E 120°19'0 0.0
2017-Sep-14 19:57N 22°34' E 120°19'0 0.0
2017-Sep-14 19:30N 22°34' E 120°19'0 0.0
2017-Sep-14 19:00N 22°34' E 120°19'0 0.0
2017-Sep-14 18:30N 22°34' E 120°19'0 0.0
2017-Sep-14 17:09N 22°34' E 120°19'0 0.0
2017-Sep-14 16:45N 22°34' E 120°19'0 0.0
2017-Sep-14 14:45N 22°34' E 120°19'0 0.0
2017-Sep-14 14:09N 22°34' E 120°19'0 0.0
2017-Sep-14 13:51N 22°34' E 120°19'0 0.0
2017-Sep-14 13:30N 22°34' E 120°19'0 0.7
2017-Sep-14 13:00N 22°33' E 120°19'4 7.3
2017-Sep-14 12:30N 22°32' E 120°15'510.9
2017-Sep-14 12:00N 22°33' E 120°10'916.0
2017-Sep-14 11:27N 22°39' E 120°03'919.8
2017-Sep-14 11:00N 22°45' E 119°56'1020.5
2017-Sep-14 10:30N 22°51' E 119°47'1121.4
2017-Sep-14 10:00N 22°59' E 119°38'10219.7
2017-Sep-14 04:49N 24°10' E 118°18'516.7
2017-Sep-14 04:30N 24°15' E 118°16'815.1
2017-Sep-14 04:01N 24°20' E 118°10'611.5
2017-Sep-14 03:31N 24°24' E 118°06'510.3
2017-Sep-14 03:00N 24°29' E 118°04'2 3.5
2017-Sep-14 02:30N 24°31' E 118°05'0 0.0
2017-Sep-14 01:55N 24°31' E 118°05'0 0.0
2017-Sep-14 01:25N 24°31' E 118°05'0 0.0
2017-Sep-14 00:55N 24°31' E 118°05'0 0.0
2017-Sep-14 00:25N 24°31' E 118°05'0 0.0
2017-Sep-13 23:55N 24°31' E 118°05'0 0.0
2017-Sep-13 23:19N 24°31' E 118°05'0 0.0
2017-Sep-13 22:55N 24°31' E 118°05'0 0.0
2017-Sep-13 22:25N 24°31' E 118°05'0 0.0
2017-Sep-13 21:55N 24°31' E 118°05'0 0.0
2017-Sep-13 20:55N 24°31' E 118°05'0 0.0
2017-Sep-13 20:25N 24°31' E 118°05'0 0.0
2017-Sep-13 19:55N 24°31' E 118°05'0 0.0
2017-Sep-13 19:25N 24°31' E 118°05'0 0.0
2017-Sep-13 18:49N 24°31' E 118°05'0 0.0
2017-Sep-13 18:25N 24°31' E 118°05'0 0.0
2017-Sep-13 17:49N 24°31' E 118°05'0 0.0
2017-Sep-13 17:25N 24°31' E 118°05'0 0.0
2017-Sep-13 16:43N 24°31' E 118°05'0 0.0
2017-Sep-13 16:25N 24°31' E 118°05'0 0.0
2017-Sep-13 15:55N 24°31' E 118°05'0 0.0
2017-Sep-13 15:19N 24°31' E 118°05'0 0.0
2017-Sep-13 14:49N 24°31' E 118°05'0 0.0
2017-Sep-13 14:25N 24°31' E 118°05'0 0.0
2017-Sep-13 13:55N 24°31' E 118°05'0 0.0
2017-Sep-13 13:19N 24°31' E 118°05'0 0.0
2017-Sep-13 12:55N 24°31' E 118°05'0 0.0
2017-Sep-13 12:13N 24°31' E 118°05'0 0.0
2017-Sep-13 11:43N 24°31' E 118°05'0 0.0
2017-Sep-13 11:25N 24°31' E 118°05'0 0.0
2017-Sep-13 10:49N 24°31' E 118°05'0 0.0
2017-Sep-13 10:25N 24°31' E 118°05'1 1.8
2017-Sep-13 10:00N 24°30' E 118°04'5 9.3
2017-Sep-13 09:31N 24°25' E 118°04'611.6
2017-Sep-13 09:01N 24°22' E 118°09'4 7.1
2017-Sep-13 08:30N 24°19' E 118°12'4 7.6
2017-Sep-13 08:00N 24°16' E 118°14'611.4
2017-Sep-13 07:30N 24°12' E 118°18'  
Track history (hours):
 
Tides and Currents Weather Stations Pressure Air Temp Water Temp Dewpoint Dewpoint Depression Visibility Wind Speed Wind Dir Waves Ship Positions

Lena-s.

Last reported at 2017-Sep-18 17:47 UTC. Time now 2017-Sep-19 13:45 UTC.
Position N 21°41' E 116°26'.

Length 261 m; draft 10.3 m.

Type: Ship (hazmat cat D). MMSI: 305386000.

Date/timePositionNaut miles runAvg speedWind from/ knotsBaromVisibWave heightAir tempDewpointWater temp
2017-Sep-18 17:47N 21°41' E 116°26'817.6
2017-Sep-18 17:18N 21°44' E 116°17'516.7
2017-Sep-18 16:58N 21°45' E 116°12'121 3.2
2017-Sep-17 02:47N 22°19' E 114°07'29 2.4
2017-Sep-16 14:50N 22°37' E 113°42'2 0.5
2017-Sep-16 11:04N 22°39' E 113°41'0 0.0
2017-Sep-16 10:40N 22°39' E 113°41'0 0.0
2017-Sep-16 10:28N 22°39' E 113°41'0 0.0
2017-Sep-16 05:56N 22°39' E 113°41'1 2.2
2017-Sep-16 05:30N 22°38' E 113°42'612.7
2017-Sep-16 05:00N 22°32' E 113°44'612.8
2017-Sep-16 04:30N 22°26' E 113°45'34611.6
2017-Sep-14 22:48N 22°32' E 119°59'413.2
2017-Sep-14 22:30N 22°32' E 120°04'713.4
2017-Sep-14 22:00N 22°33' E 120°11'713.7
2017-Sep-14 21:30N 22°33' E 120°18'1 2.2
2017-Sep-14 20:59N 22°33' E 120°19'0 0.7
2017-Sep-14 20:24N 22°34' E 120°19'0 0.0
2017-Sep-14 19:57N 22°34' E 120°19'0 0.0
2017-Sep-14 19:30N 22°34' E 120°19'0 0.0
2017-Sep-14 19:00N 22°34' E 120°19'0 0.0
2017-Sep-14 18:30N 22°34' E 120°19'0 0.0
2017-Sep-14 17:09N 22°34' E 120°19'0 0.0
2017-Sep-14 16:45N 22°34' E 120°19'0 0.0
2017-Sep-14 14:45N 22°34' E 120°19'0 0.0
2017-Sep-14 14:09N 22°34' E 120°19'0 0.0
2017-Sep-14 13:51N 22°34' E 120°19'0 0.0
2017-Sep-14 13:30N 22°34' E 120°19'0 0.7
2017-Sep-14 13:00N 22°33' E 120°19'4 7.3
2017-Sep-14 12:30N 22°32' E 120°15'510.9
2017-Sep-14 12:00N 22°33' E 120°10'916.0
2017-Sep-14 11:27N 22°39' E 120°03'919.8
2017-Sep-14 11:00N 22°45' E 119°56'1020.5
2017-Sep-14 10:30N 22°51' E 119°47'1121.4
2017-Sep-14 10:00N 22°59' E 119°38'10219.7
2017-Sep-14 04:49N 24°10' E 118°18'516.7
2017-Sep-14 04:30N 24°15' E 118°16'815.1
2017-Sep-14 04:01N 24°20' E 118°10'611.5
2017-Sep-14 03:31N 24°24' E 118°06'510.3
2017-Sep-14 03:00N 24°29' E 118°04'2 3.5
2017-Sep-14 02:30N 24°31' E 118°05'0 0.0
2017-Sep-14 01:55N 24°31' E 118°05'0 0.0
2017-Sep-14 01:25N 24°31' E 118°05'0 0.0
2017-Sep-14 00:55N 24°31' E 118°05'0 0.0
2017-Sep-14 00:25N 24°31' E 118°05'0 0.0
2017-Sep-13 23:55N 24°31' E 118°05'0 0.0
2017-Sep-13 23:19N 24°31' E 118°05'0 0.0
2017-Sep-13 22:55N 24°31' E 118°05'0 0.0
2017-Sep-13 22:25N 24°31' E 118°05'0 0.0
2017-Sep-13 21:55N 24°31' E 118°05'0 0.0
2017-Sep-13 20:55N 24°31' E 118°05'0 0.0
2017-Sep-13 20:25N 24°31' E 118°05'0 0.0
2017-Sep-13 19:55N 24°31' E 118°05'0 0.0
2017-Sep-13 19:25N 24°31' E 118°05'0 0.0
2017-Sep-13 18:49N 24°31' E 118°05'0 0.0
2017-Sep-13 18:25N 24°31' E 118°05'0 0.0
2017-Sep-13 17:49N 24°31' E 118°05'0 0.0
2017-Sep-13 17:25N 24°31' E 118°05'0 0.0
2017-Sep-13 16:43N 24°31' E 118°05'0 0.0
2017-Sep-13 16:25N 24°31' E 118°05'0 0.0
2017-Sep-13 15:55N 24°31' E 118°05'0 0.0
2017-Sep-13 15:19N 24°31' E 118°05'0 0.0
2017-Sep-13 14:49N 24°31' E 118°05'0 0.0
2017-Sep-13 14:25N 24°31' E 118°05'0 0.0
2017-Sep-13 13:55N 24°31' E 118°05'0 0.0
2017-Sep-13 13:19N 24°31' E 118°05'0 0.0
2017-Sep-13 12:55N 24°31' E 118°05'0 0.0
2017-Sep-13 12:13N 24°31' E 118°05'0 0.0
2017-Sep-13 11:43N 24°31' E 118°05'0 0.0
2017-Sep-13 11:25N 24°31' E 118°05'0 0.0
2017-Sep-13 10:49N 24°31' E 118°05'0 0.0
2017-Sep-13 10:25N 24°31' E 118°05'1 1.8
2017-Sep-13 10:00N 24°30' E 118°04'5 9.3
2017-Sep-13 09:31N 24°25' E 118°04'611.6
2017-Sep-13 09:01N 24°22' E 118°09'4 7.1
2017-Sep-13 08:30N 24°19' E 118°12'4 7.6
2017-Sep-13 08:00N 24°16' E 118°14'611.4
2017-Sep-13 07:30N 24°12' E 118°18'  

Dump ship's entire track history